createdAt,value
2022-07-31T00:00:22.662Z,4.68
2022-07-31T00:02:49.866Z,4.70
2022-07-31T00:05:17.024Z,4.50
2022-07-31T00:07:43.821Z,4.68
2022-07-31T00:10:10.729Z,4.90
2022-07-31T00:12:37.569Z,5.07
2022-07-31T00:15:06.702Z,9.65
2022-07-31T00:17:34.509Z,4.40
2022-07-31T00:20:01.940Z,4.82
2022-07-31T00:22:29.165Z,4.70
2022-07-31T00:24:56.226Z,5.15
2022-07-31T00:27:23.686Z,4.80
2022-07-31T00:29:51.263Z,5.00
2022-07-31T00:32:18.298Z,6.15
2022-07-31T00:34:45.085Z,5.05
2022-07-31T00:37:11.868Z,6.25
2022-07-31T00:39:38.805Z,6.47
2022-07-31T00:42:05.982Z,6.45
2022-07-31T00:44:32.913Z,4.93
2022-07-31T00:47:00.750Z,5.13
2022-07-31T00:49:37.808Z,5.13
2022-07-31T00:52:05.783Z,7.03
2022-07-31T00:54:33.137Z,8.23
2022-07-31T00:57:00.168Z,5.43
2022-07-31T00:59:28.866Z,5.68
2022-07-31T01:01:56.581Z,5.57
2022-07-31T01:04:23.687Z,5.80
2022-07-31T01:06:50.833Z,5.57
2022-07-31T01:09:17.654Z,5.88
2022-07-31T01:12:02.725Z,5.97
2022-07-31T01:14:35.656Z,6.68
2022-07-31T01:17:05.066Z,5.25
2022-07-31T01:19:38.099Z,5.05
2022-07-31T01:22:35.262Z,6.10
2022-07-31T01:25:34.707Z,6.13
2022-07-31T01:28:43.615Z,6.32
2022-07-31T01:31:26.551Z,5.13
2022-07-31T01:34:10.585Z,4.95
2022-07-31T01:36:44.594Z,5.28
2022-07-31T01:39:11.850Z,5.57
2022-07-31T01:41:43.186Z,6.95
2022-07-31T01:44:14.183Z,5.70
2022-07-31T01:46:44.046Z,5.20
2022-07-31T01:49:13.288Z,5.15
2022-07-31T01:51:43.801Z,6.53
2022-07-31T01:54:13.087Z,5.07
2022-07-31T01:56:41.001Z,6.93
2022-07-31T01:59:20.026Z,4.70
2022-07-31T02:02:09.880Z,5.57
2022-07-31T02:04:38.785Z,5.43
2022-07-31T02:07:08.309Z,4.95
2022-07-31T02:09:37.370Z,8.45
2022-07-31T02:12:09.687Z,5.30
2022-07-31T02:14:40.746Z,5.20
2022-07-31T02:17:09.743Z,5.25
2022-07-31T02:19:59.985Z,5.78
2022-07-31T02:22:29.386Z,8.45
2022-07-31T02:24:56.340Z,5.20
2022-07-31T02:27:54.285Z,7.05
2022-07-31T02:30:13.548Z,6.13
2022-07-31T02:32:41.338Z,8.13
2022-07-31T02:35:09.688Z,7.00
2022-07-31T02:37:38.931Z,7.30
2022-07-31T02:40:08.049Z,7.60
2022-07-31T02:42:36.855Z,5.78
2022-07-31T02:45:06.350Z,5.65
2022-07-31T02:47:33.615Z,5.00
2022-07-31T02:50:04.122Z,5.53
2022-07-31T02:52:32.146Z,7.30
2022-07-31T02:55:00.439Z,5.68
2022-07-31T02:57:27.428Z,5.72
2022-07-31T02:59:54.563Z,9.80
2022-07-31T03:02:22.747Z,7.47
2022-07-31T03:05:04.211Z,7.18
2022-07-31T03:07:31.562Z,7.78
2022-07-31T03:09:58.879Z,8.68
2022-07-31T03:12:52.633Z,5.35
2022-07-31T03:15:21.569Z,5.57
2022-07-31T03:17:50.430Z,7.00
2022-07-31T03:20:25.014Z,6.85
2022-07-31T03:22:52.055Z,6.93
2022-07-31T03:25:21.969Z,7.35
2022-07-31T03:27:52.346Z,5.80
2022-07-31T03:30:25.896Z,8.15
2022-07-31T03:32:56.610Z,9.65
2022-07-31T03:35:25.298Z,6.05
2022-07-31T03:37:52.439Z,5.47
2022-07-31T03:40:19.563Z,5.57
2022-07-31T03:42:49.028Z,7.03
2022-07-31T03:45:16.492Z,9.15
2022-07-31T03:47:43.543Z,10.40
2022-07-31T03:50:11.642Z,5.90
2022-07-31T03:52:38.741Z,7.93
2022-07-31T03:55:07.580Z,6.22
2022-07-31T03:57:36.453Z,8.38
2022-07-31T04:00:05.018Z,8.15
2022-07-31T04:02:43.457Z,7.00
2022-07-31T04:05:30.481Z,5.63
2022-07-31T04:07:58.043Z,5.53
2022-07-31T04:10:25.267Z,6.53
2022-07-31T04:12:52.458Z,7.07
2022-07-31T04:15:19.231Z,6.38
2022-07-31T04:17:46.135Z,9.10
2022-07-31T04:20:16.332Z,5.38
2022-07-31T04:22:43.106Z,5.72
2022-07-31T04:25:18.555Z,5.70
2022-07-31T04:28:11.790Z,10.27
2022-07-31T04:30:39.268Z,5.93
2022-07-31T04:33:06.446Z,6.10
2022-07-31T04:35:33.493Z,6.15
2022-07-31T04:38:00.623Z,5.90
2022-07-31T04:40:30.262Z,5.90
2022-07-31T04:42:57.031Z,7.22
2022-07-31T04:45:23.886Z,7.88
2022-07-31T04:47:50.827Z,5.72
2022-07-31T04:50:17.730Z,6.88
2022-07-31T04:52:55.574Z,6.60
2022-07-31T04:55:24.375Z,6.18
2022-07-31T04:57:51.282Z,5.95
2022-07-31T05:00:18.440Z,5.95
2022-07-31T05:02:45.487Z,5.45
2022-07-31T05:05:12.386Z,5.38
2022-07-31T05:07:41.966Z,5.85
2022-07-31T05:10:35.839Z,5.90
2022-07-31T05:13:02.710Z,6.90
2022-07-31T05:15:31.429Z,5.85
2022-07-31T05:17:58.242Z,5.72
2022-07-31T05:20:53.954Z,8.23
2022-07-31T05:23:32.282Z,6.97
2022-07-31T05:26:07.633Z,12.43
2022-07-31T05:28:35.066Z,10.48
2022-07-31T05:31:02.419Z,8.82
2022-07-31T05:33:29.967Z,6.45
2022-07-31T05:35:57.801Z,5.78
2022-07-31T05:38:25.367Z,6.28
2022-07-31T05:41:10.925Z,10.80
2022-07-31T05:43:56.219Z,6.85
2022-07-31T05:46:27.543Z,4.97
2022-07-31T05:48:54.336Z,7.03
2022-07-31T05:51:22.814Z,5.75
2022-07-31T05:53:49.802Z,5.80
2022-07-31T05:56:35.537Z,6.57
2022-07-31T05:59:02.558Z,6.15
2022-07-31T06:01:29.608Z,4.57
2022-07-31T06:03:57.708Z,5.00
2022-07-31T06:06:30.827Z,5.43
2022-07-31T06:09:03.565Z,9.77
2022-07-31T06:11:35.310Z,4.80
2022-07-31T06:14:02.097Z,4.28
2022-07-31T06:16:38.113Z,4.28
2022-07-31T06:19:05.183Z,4.75
2022-07-31T06:21:31.988Z,2.78
2022-07-31T06:23:59.129Z,3.45
2022-07-31T06:26:31.997Z,4.85
2022-07-31T06:28:59.223Z,6.10
2022-07-31T06:31:26.178Z,3.70
2022-07-31T06:33:56.293Z,3.15
2022-07-31T06:36:27.758Z,2.70
2022-07-31T06:38:58.779Z,6.13
2022-07-31T06:41:50.119Z,2.83
2022-07-31T06:44:45.763Z,5.15
2022-07-31T06:47:31.770Z,4.60
2022-07-31T06:50:06.123Z,3.85
2022-07-31T06:52:37.863Z,3.83
2022-07-31T06:55:07.227Z,4.32
2022-07-31T06:57:34.565Z,4.05
2022-07-31T07:00:06.856Z,5.13
2022-07-31T07:02:41.895Z,4.25
2022-07-31T07:05:08.911Z,3.67
2022-07-31T07:07:37.003Z,5.88
2022-07-31T07:10:06.223Z,3.40
2022-07-31T07:12:59.255Z,3.10
2022-07-31T07:15:27.710Z,4.50
2022-07-31T07:17:54.484Z,4.07
2022-07-31T07:20:31.813Z,4.13
2022-07-31T07:22:58.632Z,4.05
2022-07-31T07:25:36.652Z,5.05
2022-07-31T07:28:03.781Z,4.43
2022-07-31T07:30:30.734Z,3.90
2022-07-31T07:33:00.355Z,4.47
2022-07-31T07:35:33.796Z,3.40
2022-07-31T07:38:07.126Z,7.45
2022-07-31T07:40:37.009Z,3.33
2022-07-31T07:43:04.387Z,7.30
2022-07-31T07:45:32.507Z,3.78
2022-07-31T07:48:06.025Z,3.83
2022-07-31T07:50:57.125Z,5.55
2022-07-31T07:53:29.958Z,8.02
2022-07-31T07:56:15.569Z,3.25
2022-07-31T07:58:45.282Z,4.47
2022-07-31T08:01:35.096Z,3.72
2022-07-31T08:04:14.826Z,2.88
2022-07-31T08:06:41.627Z,3.72
2022-07-31T08:09:09.425Z,3.17
2022-07-31T08:12:03.655Z,3.05
2022-07-31T08:14:53.676Z,3.60
2022-07-31T08:17:59.236Z,2.78
2022-07-31T08:20:27.436Z,2.17
2022-07-31T08:22:54.494Z,4.55
2022-07-31T08:25:21.429Z,2.03
2022-07-31T08:27:50.030Z,2.25
2022-07-31T08:30:17.067Z,3.55
2022-07-31T08:32:43.986Z,2.33
2022-07-31T08:35:20.925Z,2.13
2022-07-31T08:38:02.793Z,2.00
2022-07-31T08:40:42.959Z,2.65
2022-07-31T08:44:00.761Z,4.57
2022-07-31T08:46:02.938Z,2.30
2022-07-31T08:48:36.502Z,2.78
2022-07-31T08:51:05.474Z,2.95
2022-07-31T08:53:51.678Z,2.45
2022-07-31T08:56:20.984Z,2.67
2022-07-31T08:58:47.836Z,1.67
2022-07-31T09:01:15.610Z,3.75
2022-07-31T09:03:42.954Z,3.95
2022-07-31T09:06:12.716Z,2.22
2022-07-31T09:08:39.605Z,3.38
2022-07-31T09:11:10.524Z,4.03
2022-07-31T09:14:01.461Z,3.58
2022-07-31T09:16:47.606Z,2.33
2022-07-31T09:19:53.049Z,1.45
2022-07-31T09:22:29.586Z,2.03
2022-07-31T09:25:12.326Z,2.00
2022-07-31T09:27:40.862Z,2.38
2022-07-31T09:30:08.869Z,2.65
2022-07-31T09:32:54.710Z,1.45
2022-07-31T09:35:39.962Z,2.50
2022-07-31T09:38:08.967Z,2.42
2022-07-31T09:40:57.432Z,1.60
2022-07-31T09:43:51.476Z,2.10
2022-07-31T09:46:19.118Z,2.08
2022-07-31T09:48:59.891Z,2.58
2022-07-31T09:51:41.978Z,3.22
2022-07-31T09:54:27.904Z,5.53
2022-07-31T09:57:14.551Z,3.38
2022-07-31T09:59:44.679Z,1.67
2022-07-31T10:02:15.156Z,3.72
2022-07-31T10:04:47.769Z,4.60
2022-07-31T10:07:31.519Z,2.42
2022-07-31T10:10:07.893Z,2.75
2022-07-31T10:12:55.546Z,2.05
2022-07-31T10:15:26.017Z,1.55
2022-07-31T10:18:35.698Z,4.55
2022-07-31T10:21:34.083Z,1.75
2022-07-31T10:24:11.352Z,4.15
2022-07-31T10:27:10.841Z,2.20
2022-07-31T10:29:27.558Z,3.30
2022-07-31T10:32:00.927Z,1.88
2022-07-31T10:34:28.886Z,4.85
2022-07-31T10:37:24.781Z,3.78
2022-07-31T10:40:37.022Z,2.20
2022-07-31T10:43:36.826Z,5.15
2022-07-31T10:46:12.110Z,3.50
2022-07-31T10:48:53.810Z,4.72
2022-07-31T10:51:48.610Z,1.70
2022-07-31T10:54:44.049Z,1.60
2022-07-31T10:57:35.019Z,1.73
2022-07-31T11:00:29.461Z,2.72
2022-07-31T11:03:19.987Z,2.30
2022-07-31T11:06:05.441Z,3.05
2022-07-31T11:09:04.790Z,6.40
2022-07-31T11:12:00.736Z,1.23
2022-07-31T11:14:39.731Z,2.70
2022-07-31T11:18:16.598Z,2.55
2022-07-31T11:20:32.074Z,1.73
2022-07-31T11:23:05.910Z,2.70
2022-07-31T11:25:35.407Z,1.98
2022-07-31T11:28:24.905Z,3.20
2022-07-31T11:30:53.434Z,1.30
2022-07-31T11:33:41.863Z,4.10
2022-07-31T11:36:24.199Z,3.25
2022-07-31T11:38:54.089Z,2.03
2022-07-31T11:41:23.917Z,1.23
2022-07-31T11:43:52.308Z,3.88
2022-07-31T11:46:30.193Z,1.98
2022-07-31T11:48:57.692Z,2.40
2022-07-31T11:51:25.936Z,1.10
2022-07-31T11:53:57.302Z,3.60
2022-07-31T11:56:26.903Z,1.88
2022-07-31T11:58:58.214Z,2.65
2022-07-31T12:01:29.502Z,1.50
2022-07-31T12:04:08.995Z,1.00
2022-07-31T12:06:37.278Z,1.40
2022-07-31T12:09:04.649Z,1.85
2022-07-31T12:11:31.740Z,1.23
2022-07-31T12:13:59.536Z,1.98
2022-07-31T12:16:26.562Z,1.13
2022-07-31T12:18:59.632Z,2.72
2022-07-31T12:21:35.868Z,1.30
2022-07-31T12:24:10.288Z,1.33
2022-07-31T12:26:37.184Z,1.30
2022-07-31T12:29:06.638Z,1.52
2022-07-31T12:31:54.234Z,2.65
2022-07-31T12:34:43.477Z,2.60
2022-07-31T12:37:16.873Z,2.97
2022-07-31T12:39:54.350Z,1.38
2022-07-31T12:42:30.817Z,1.52
2022-07-31T12:45:19.591Z,3.65
2022-07-31T12:47:52.494Z,3.88
2022-07-31T12:50:23.825Z,1.17
2022-07-31T12:52:50.998Z,1.02
2022-07-31T12:55:18.191Z,0.90
2022-07-31T12:57:51.660Z,2.60
2022-07-31T13:00:24.138Z,1.95
2022-07-31T13:02:52.028Z,1.05
2022-07-31T13:05:19.919Z,1.80
2022-07-31T13:07:47.214Z,3.20
2022-07-31T13:10:20.177Z,1.20
2022-07-31T13:12:50.521Z,3.38
2022-07-31T13:15:20.715Z,0.90
2022-07-31T13:17:50.831Z,1.08
2022-07-31T13:20:19.306Z,1.08
2022-07-31T13:22:46.431Z,0.93
2022-07-31T13:25:13.352Z,1.27
2022-07-31T13:27:41.403Z,0.98
2022-07-31T13:30:09.427Z,0.98
2022-07-31T13:32:36.323Z,1.05
2022-07-31T13:35:19.547Z,0.95
2022-07-31T13:37:51.115Z,4.20
2022-07-31T13:40:19.672Z,1.20
2022-07-31T13:42:46.864Z,5.05
2022-07-31T13:45:13.662Z,1.33
2022-07-31T13:47:50.252Z,1.05
2022-07-31T13:50:18.078Z,2.28
2022-07-31T13:52:44.961Z,1.70
2022-07-31T13:55:11.978Z,2.08
2022-07-31T13:57:38.957Z,1.13
2022-07-31T14:00:06.520Z,2.60
2022-07-31T14:02:33.401Z,2.72
2022-07-31T14:05:00.359Z,5.60
2022-07-31T14:07:45.435Z,0.93
2022-07-31T14:10:19.933Z,2.95
2022-07-31T14:12:47.840Z,1.23
2022-07-31T14:15:15.070Z,1.35
2022-07-31T14:17:42.186Z,1.77
2022-07-31T14:20:09.617Z,3.17
2022-07-31T14:22:36.452Z,1.75
2022-07-31T14:25:04.246Z,1.48
2022-07-31T14:27:31.135Z,1.20
2022-07-31T14:29:57.917Z,2.33
2022-07-31T14:32:25.262Z,0.93
2022-07-31T14:34:52.224Z,1.08
2022-07-31T14:37:20.709Z,2.03
2022-07-31T14:39:47.846Z,1.38
2022-07-31T14:42:14.851Z,0.80
2022-07-31T14:44:49.026Z,2.13
2022-07-31T14:47:17.069Z,0.75
2022-07-31T14:50:07.613Z,1.35
2022-07-31T14:52:31.860Z,0.77
2022-07-31T14:55:00.142Z,1.63
2022-07-31T14:57:28.267Z,2.33
2022-07-31T14:59:55.025Z,3.63
2022-07-31T15:02:22.929Z,1.15
2022-07-31T15:04:51.688Z,0.93
2022-07-31T15:07:34.622Z,1.00
2022-07-31T15:10:04.897Z,1.23
2022-07-31T15:12:32.233Z,1.35
2022-07-31T15:14:59.223Z,1.33
2022-07-31T15:17:26.157Z,2.28
2022-07-31T15:19:53.155Z,2.85
2022-07-31T15:22:20.540Z,0.82
2022-07-31T15:24:50.022Z,1.42
2022-07-31T15:27:18.927Z,1.02
2022-07-31T15:30:03.417Z,1.27
2022-07-31T15:32:33.894Z,1.55
2022-07-31T15:35:00.909Z,1.50
2022-07-31T15:37:28.238Z,1.15
2022-07-31T15:40:01.933Z,1.05
2022-07-31T15:42:33.351Z,1.30
2022-07-31T15:45:00.269Z,1.10
2022-07-31T15:47:27.079Z,1.33
2022-07-31T15:49:53.894Z,1.60
2022-07-31T15:52:20.659Z,3.47
2022-07-31T15:54:51.772Z,3.55
2022-07-31T15:57:23.062Z,0.82
2022-07-31T15:59:50.832Z,1.00
2022-07-31T16:02:18.142Z,1.00
2022-07-31T16:04:48.621Z,1.83
2022-07-31T16:08:29.796Z,1.08
2022-07-31T16:10:15.194Z,2.25
2022-07-31T16:12:47.928Z,0.80
2022-07-31T16:15:16.730Z,2.97
2022-07-31T16:17:44.263Z,1.95
2022-07-31T16:20:20.687Z,2.50
2022-07-31T16:22:58.704Z,1.08
2022-07-31T16:25:27.491Z,2.35
2022-07-31T16:27:54.906Z,2.88
2022-07-31T16:30:22.407Z,3.15
2022-07-31T16:32:49.851Z,0.98
2022-07-31T16:35:16.842Z,2.13
2022-07-31T16:37:50.904Z,1.45
2022-07-31T16:40:30.861Z,3.25
2022-07-31T16:43:49.756Z,3.92
2022-07-31T16:45:50.924Z,1.17
2022-07-31T16:48:18.168Z,10.43
2022-07-31T16:50:47.418Z,2.80
2022-07-31T16:54:10.647Z,0.90
2022-07-31T16:56:12.095Z,0.90
2022-07-31T16:58:39.431Z,1.52
2022-07-31T17:01:53.262Z,3.72
2022-07-31T17:04:00.741Z,3.92
2022-07-31T17:06:36.388Z,1.35
2022-07-31T17:09:17.076Z,3.67
2022-07-31T17:11:53.038Z,1.15
2022-07-31T17:14:22.601Z,1.45
2022-07-31T17:16:50.783Z,2.67
2022-07-31T17:19:40.990Z,1.92
2022-07-31T17:22:07.453Z,1.38
2022-07-31T17:24:37.254Z,1.90
2022-07-31T17:27:07.035Z,1.35
2022-07-31T17:29:34.799Z,1.33
2022-07-31T17:32:01.862Z,2.88
2022-07-31T17:34:28.834Z,1.10
2022-07-31T17:36:56.373Z,2.38
2022-07-31T17:39:25.198Z,2.42
2022-07-31T17:41:55.403Z,2.90
2022-07-31T17:44:22.184Z,1.23
2022-07-31T17:46:51.286Z,1.77
2022-07-31T17:49:20.373Z,3.83
2022-07-31T17:51:58.759Z,1.50
2022-07-31T17:54:28.460Z,1.45
2022-07-31T17:56:55.214Z,2.22
2022-07-31T17:59:23.208Z,1.00
2022-07-31T18:01:52.260Z,2.10
2022-07-31T18:04:21.357Z,2.05
2022-07-31T18:06:54.463Z,2.65
2022-07-31T18:09:23.363Z,2.25
2022-07-31T18:11:51.543Z,3.60
2022-07-31T18:14:19.344Z,12.05
2022-07-31T18:16:47.879Z,1.83
2022-07-31T18:19:15.134Z,1.33
2022-07-31T18:21:42.217Z,1.65
2022-07-31T18:24:09.104Z,1.90
2022-07-31T18:26:37.290Z,2.38
2022-07-31T18:29:04.959Z,3.88
2022-07-31T18:31:35.404Z,2.97
2022-07-31T18:34:04.590Z,3.28
2022-07-31T18:36:32.981Z,3.28
2022-07-31T18:39:00.101Z,4.32
2022-07-31T18:41:27.535Z,2.40
2022-07-31T18:43:54.468Z,1.55
2022-07-31T18:46:21.455Z,1.80
2022-07-31T18:48:53.092Z,1.65
2022-07-31T18:51:23.181Z,2.25
2022-07-31T18:53:50.334Z,1.63
2022-07-31T18:56:17.263Z,1.63
2022-07-31T18:58:44.057Z,2.38
2022-07-31T19:01:10.945Z,2.38
2022-07-31T19:03:37.722Z,3.85
2022-07-31T19:06:05.380Z,1.38
2022-07-31T19:08:32.267Z,4.43
2022-07-31T19:10:59.600Z,1.75
2022-07-31T19:13:26.608Z,4.00
2022-07-31T19:15:53.485Z,2.28
2022-07-31T19:18:26.425Z,3.40
2022-07-31T19:21:23.600Z,2.78
2022-07-31T19:23:44.157Z,2.05
2022-07-31T19:26:11.297Z,4.22
2022-07-31T19:28:39.878Z,2.10
2022-07-31T19:31:07.558Z,2.38
2022-07-31T19:33:34.809Z,4.18
2022-07-31T19:36:03.102Z,3.38
2022-07-31T19:38:31.771Z,3.47
2022-07-31T19:40:59.013Z,2.05
2022-07-31T19:43:25.964Z,2.10
2022-07-31T19:46:02.739Z,2.78
2022-07-31T19:48:40.665Z,3.03
2022-07-31T19:51:07.924Z,2.13
2022-07-31T19:53:35.827Z,2.88
2022-07-31T19:56:05.963Z,2.38
2022-07-31T19:58:35.104Z,2.05
2022-07-31T20:01:05.046Z,2.28
2022-07-31T20:03:32.361Z,3.70
2022-07-31T20:05:59.763Z,5.80
2022-07-31T20:08:28.138Z,2.38
2022-07-31T20:11:03.514Z,5.35
2022-07-31T20:13:32.593Z,4.80
2022-07-31T20:16:00.340Z,5.25
2022-07-31T20:18:28.792Z,7.53
2022-07-31T20:21:07.045Z,4.57
2022-07-31T20:23:38.117Z,3.97
2022-07-31T20:26:11.528Z,2.30
2022-07-31T20:28:40.416Z,4.07
2022-07-31T20:31:16.158Z,3.10
2022-07-31T20:33:56.515Z,7.18
2022-07-31T20:36:24.005Z,7.60
2022-07-31T20:38:51.114Z,3.50
2022-07-31T20:41:18.320Z,2.40
2022-07-31T20:43:45.810Z,2.95
2022-07-31T20:46:12.855Z,3.90
2022-07-31T20:48:40.265Z,4.63
2022-07-31T20:51:09.222Z,8.75
2022-07-31T20:53:37.115Z,2.42
2022-07-31T20:56:04.212Z,2.47
2022-07-31T20:58:31.504Z,3.88
2022-07-31T21:00:58.461Z,7.47
2022-07-31T21:03:25.249Z,4.53
2022-07-31T21:05:52.253Z,4.75
2022-07-31T21:08:19.167Z,3.00
2022-07-31T21:10:46.165Z,8.88
2022-07-31T21:13:13.403Z,6.88
2022-07-31T21:15:44.527Z,3.63
2022-07-31T21:18:13.588Z,4.57
2022-07-31T21:20:51.946Z,6.05
2022-07-31T21:23:24.036Z,3.80
2022-07-31T21:25:55.959Z,5.63
2022-07-31T21:28:24.393Z,3.03
2022-07-31T21:30:53.720Z,2.75
2022-07-31T21:33:20.905Z,4.20
2022-07-31T21:35:48.031Z,3.08
2022-07-31T21:38:16.065Z,8.45
2022-07-31T21:40:43.945Z,4.18
2022-07-31T21:43:11.812Z,4.63
2022-07-31T21:45:55.202Z,6.97
2022-07-31T21:48:25.242Z,7.93
2022-07-31T21:50:53.241Z,4.38
2022-07-31T21:53:20.586Z,4.22
2022-07-31T21:55:47.397Z,5.18
2022-07-31T21:58:14.297Z,2.92
2022-07-31T22:00:41.563Z,2.72
2022-07-31T22:03:08.766Z,5.00
2022-07-31T22:05:54.565Z,5.28
2022-07-31T22:08:21.411Z,3.15
2022-07-31T22:10:50.854Z,5.25
2022-07-31T22:13:18.247Z,4.97
2022-07-31T22:15:51.434Z,3.05
2022-07-31T22:18:30.034Z,4.00
2022-07-31T22:20:57.652Z,4.47
2022-07-31T22:23:25.935Z,5.25
2022-07-31T22:25:53.341Z,4.63
2022-07-31T22:28:22.487Z,5.28
2022-07-31T22:30:50.010Z,3.55
2022-07-31T22:33:16.982Z,5.18
2022-07-31T22:35:44.080Z,3.35
2022-07-31T22:38:13.630Z,4.25
2022-07-31T22:40:43.970Z,2.90
2022-07-31T22:44:11.049Z,4.97
2022-07-31T22:46:00.551Z,2.92
2022-07-31T22:48:28.088Z,3.47
2022-07-31T22:50:56.174Z,6.22
2022-07-31T22:53:24.146Z,2.70
2022-07-31T22:55:53.122Z,9.15
2022-07-31T22:58:23.534Z,4.13
2022-07-31T23:00:50.458Z,4.40
2022-07-31T23:03:17.354Z,3.05
2022-07-31T23:06:05.286Z,4.05
2022-07-31T23:08:30.838Z,4.50
2022-07-31T23:10:57.743Z,3.15
2022-07-31T23:13:24.656Z,6.10
2022-07-31T23:15:51.640Z,3.17
2022-07-31T23:18:18.529Z,3.80
2022-07-31T23:20:45.325Z,3.97
2022-07-31T23:23:12.113Z,3.13
2022-07-31T23:25:38.894Z,2.90
2022-07-31T23:28:05.697Z,3.63
2022-07-31T23:30:32.467Z,4.45
2022-07-31T23:32:59.350Z,3.13
2022-07-31T23:35:26.111Z,4.28
2022-07-31T23:37:52.876Z,3.50
2022-07-31T23:40:19.655Z,3.08
2022-07-31T23:42:46.471Z,7.20
2022-07-31T23:45:15.793Z,6.70
2022-07-31T23:47:45.558Z,7.55
2022-07-31T23:50:14.253Z,4.82
2022-07-31T23:52:41.805Z,4.47
2022-07-31T23:55:09.187Z,4.13
2022-07-31T23:57:36.506Z,8.00
